createdAt,value
2019-04-05T00:00:28.483Z,7.3
2019-04-05T00:01:29.890Z,7.3
2019-04-05T00:02:31.409Z,7.3
2019-04-05T00:03:32.789Z,7.3
2019-04-05T00:04:34.341Z,7.4
2019-04-05T00:05:35.798Z,7.4
2019-04-05T00:06:37.161Z,7.4
2019-04-05T00:07:38.566Z,7.5
2019-04-05T00:08:40.090Z,7.5
2019-04-05T00:09:41.620Z,7.5
2019-04-05T00:10:43.186Z,7.5
2019-04-05T00:11:44.762Z,7.5
2019-04-05T00:12:46.309Z,7.5
2019-04-05T00:13:47.853Z,7.5
2019-04-05T00:14:49.405Z,7.4
2019-04-05T00:15:50.791Z,7.4
2019-04-05T00:16:52.359Z,7.4
2019-04-05T00:17:53.760Z,7.3
2019-04-05T00:18:55.145Z,7.2
2019-04-05T00:19:56.525Z,7.2
2019-04-05T00:20:57.756Z,7.2
2019-04-05T00:21:59.331Z,7.2
2019-04-05T00:23:00.850Z,7.2
2019-04-05T00:24:02.439Z,7.2
2019-04-05T00:25:03.358Z,7.2
2019-04-05T00:26:04.435Z,7.2
2019-04-05T00:27:06.012Z,7.2
2019-04-05T00:28:07.559Z,7.2
2019-04-05T00:29:09.084Z,7.3
2019-04-05T00:30:10.615Z,7.3
2019-04-05T00:31:11.991Z,7.3
2019-04-05T00:32:13.551Z,7.3
2019-04-05T00:33:15.088Z,7.3
2019-04-05T00:34:16.479Z,7.4
2019-04-05T00:35:18.022Z,7.4
2019-04-05T00:36:19.390Z,7.5
2019-04-05T00:37:20.801Z,7.5
2019-04-05T00:38:22.375Z,7.5
2019-04-05T00:39:23.894Z,7.5
2019-04-05T00:40:25.421Z,7.5
2019-04-05T00:41:26.967Z,7.5
2019-04-05T00:42:28.514Z,7.5
2019-04-05T00:43:30.055Z,7.5
2019-04-05T00:44:31.585Z,7.5
2019-04-05T00:45:32.951Z,7.5
2019-04-05T00:46:34.482Z,7.6
2019-04-05T00:47:36.015Z,7.6
2019-04-05T00:48:37.415Z,7.6
2019-04-05T00:49:38.952Z,7.6
2019-04-05T00:50:40.492Z,7.7
2019-04-05T00:51:43.258Z,7.6
2019-04-05T00:52:44.823Z,7.6
2019-04-05T00:53:46.209Z,7.6
2019-04-05T00:54:47.798Z,7.6
2019-04-05T00:55:49.025Z,7.6
2019-04-05T00:56:50.581Z,7.6
2019-04-05T00:57:52.159Z,7.6
2019-04-05T00:58:53.685Z,7.6
2019-04-05T00:59:55.245Z,7.6
2019-04-05T01:00:56.645Z,7.6
2019-04-05T01:01:58.279Z,7.6
2019-04-05T01:02:59.819Z,7.6
2019-04-05T01:04:01.214Z,7.5
2019-04-05T01:05:02.753Z,7.4
2019-04-05T01:06:04.141Z,7.4
2019-04-05T01:07:05.525Z,7.2
2019-04-05T01:08:06.906Z,7.1
2019-04-05T01:09:07.976Z,7.1
2019-04-05T01:10:09.374Z,7.1
2019-04-05T01:11:10.746Z,7.1
2019-04-05T01:12:12.291Z,7.1
2019-04-05T01:13:13.818Z,7.1
2019-04-05T01:14:15.220Z,7.1
2019-04-05T01:15:16.618Z,7.1
2019-04-05T01:16:18.187Z,7.1
2019-04-05T01:17:26.695Z,7.1
2019-04-05T01:18:28.256Z,7.1
2019-04-05T01:19:29.862Z,7.1
2019-04-05T01:20:31.405Z,7.2
2019-04-05T01:21:32.769Z,7.1
2019-04-05T01:22:34.354Z,7.1
2019-04-05T01:23:35.798Z,7.1
2019-04-05T01:24:37.178Z,7.1
2019-04-05T01:25:38.563Z,7.2
2019-04-05T01:26:40.125Z,7.1
2019-04-05T01:27:41.658Z,7.1
2019-04-05T01:28:42.914Z,7.1
2019-04-05T01:29:44.152Z,7.1
2019-04-05T01:30:45.717Z,7.2
2019-04-05T01:31:46.962Z,7.2
2019-04-05T01:32:48.502Z,7.2
2019-04-05T01:33:50.025Z,7.2
2019-04-05T01:34:51.641Z,7.2
2019-04-05T01:35:53.189Z,7.2
2019-04-05T01:36:54.729Z,7.1
2019-04-05T01:37:56.272Z,7.2
2019-04-05T01:38:57.650Z,7.2
2019-04-05T01:39:59.189Z,7.2
2019-04-05T01:41:00.721Z,7.2
2019-04-05T01:42:02.321Z,7.2
2019-04-05T01:43:03.706Z,7.2
2019-04-05T01:44:05.095Z,7.2
2019-04-05T01:45:06.639Z,7.2
2019-04-05T01:46:08.241Z,7.2
2019-04-05T01:47:09.859Z,7.2
2019-04-05T01:48:11.622Z,7.2
2019-04-05T01:49:13.160Z,7.2
2019-04-05T01:50:14.718Z,7.2
2019-04-05T01:51:16.251Z,7.2
2019-04-05T01:52:17.632Z,7.1
2019-04-05T01:53:19.071Z,7.1
2019-04-05T01:54:20.608Z,7.1
2019-04-05T01:55:22.139Z,7.1
2019-04-05T01:56:23.376Z,7.1
2019-04-05T01:57:24.956Z,7.1
2019-04-05T01:58:26.508Z,7.1
2019-04-05T01:59:27.736Z,7.1
2019-04-05T02:00:29.269Z,7.1
2019-04-05T02:01:30.650Z,7.1
2019-04-05T02:02:32.029Z,7.1
2019-04-05T02:03:33.568Z,7.1
2019-04-05T02:04:35.099Z,7.1
2019-04-05T02:05:36.532Z,7.1
2019-04-05T02:06:38.067Z,7.1
2019-04-05T02:07:39.606Z,7.1
2019-04-05T02:08:41.140Z,7.1
2019-04-05T02:09:42.522Z,7.1
2019-04-05T02:10:43.760Z,7.1
2019-04-05T02:11:45.303Z,7.1
2019-04-05T02:12:46.846Z,7.1
2019-04-05T02:13:48.397Z,7.1
2019-04-05T02:14:49.974Z,7.1
2019-04-05T02:15:51.342Z,7.1
2019-04-05T02:16:52.750Z,7.2
2019-04-05T02:17:54.009Z,7.2
2019-04-05T02:18:55.392Z,7.1
2019-04-05T02:19:56.848Z,7.2
2019-04-05T02:20:58.139Z,7.2
2019-04-05T02:21:59.684Z,7.2
2019-04-05T02:23:01.272Z,7.2
2019-04-05T02:24:02.825Z,7.2
2019-04-05T02:25:04.228Z,7.2
2019-04-05T02:26:05.600Z,7.2
2019-04-05T02:27:07.136Z,7.2
2019-04-05T02:28:08.512Z,7.3
2019-04-05T02:29:10.048Z,7.3
2019-04-05T02:30:11.655Z,7.3
2019-04-05T02:31:13.243Z,7.4
2019-04-05T02:32:14.817Z,7.5
2019-04-05T02:33:16.262Z,7.6
2019-04-05T02:34:17.838Z,7.7
2019-04-05T02:35:19.288Z,7.8
2019-04-05T02:36:20.970Z,7.9
2019-04-05T02:37:22.226Z,7.7
2019-04-05T02:38:23.779Z,7.8
2019-04-05T02:39:25.182Z,7.9
2019-04-05T02:40:26.918Z,7.9
2019-04-05T02:41:28.309Z,7.9
2019-04-05T02:42:29.539Z,7.9
2019-04-05T02:43:31.097Z,7.9
2019-04-05T02:44:32.666Z,7.9
2019-04-05T02:45:34.082Z,7.9
2019-04-05T02:46:35.641Z,7.9
2019-04-05T02:47:37.189Z,7.9
2019-04-05T02:48:38.785Z,7.9
2019-04-05T02:49:40.211Z,7.9
2019-04-05T02:50:41.771Z,7.9
2019-04-05T02:51:43.297Z,7.9
2019-04-05T02:52:44.887Z,7.9
2019-04-05T02:53:46.170Z,7.9
2019-04-05T02:54:47.418Z,7.9
2019-04-05T02:55:48.814Z,7.2
2019-04-05T02:56:50.205Z,7.3
2019-04-05T02:57:51.603Z,7.4
2019-04-05T02:58:53.014Z,7.5
2019-04-05T02:59:54.394Z,7.6
2019-04-05T03:00:55.983Z,7.7
2019-04-05T03:01:57.568Z,7.8
2019-04-05T03:02:59.136Z,7.8
2019-04-05T03:04:00.742Z,7.9
2019-04-05T03:05:02.192Z,7.9
2019-04-05T03:06:03.624Z,7.9
2019-04-05T03:07:05.207Z,7.9
2019-04-05T03:08:06.593Z,7.9
2019-04-05T03:09:08.243Z,7.9
2019-04-05T03:10:09.641Z,7.9
2019-04-05T03:11:11.259Z,7.9
2019-04-05T03:12:12.826Z,7.9
2019-04-05T03:13:14.397Z,7.9
2019-04-05T03:14:15.962Z,7.9
2019-04-05T03:15:17.208Z,7.9
2019-04-05T03:16:18.290Z,7.9
2019-04-05T03:17:19.675Z,7.9
2019-04-05T03:18:21.081Z,7.9
2019-04-05T03:19:22.668Z,7.9
2019-04-05T03:20:24.758Z,7.2
2019-04-05T03:21:26.091Z,7.2
2019-04-05T03:22:27.559Z,7.3
2019-04-05T03:23:28.984Z,7.3
2019-04-05T03:24:30.274Z,7.3
2019-04-05T03:25:31.910Z,7.3
2019-04-05T03:26:33.168Z,7.3
2019-04-05T03:27:34.774Z,7.3
2019-04-05T03:28:36.474Z,7.3
2019-04-05T03:29:37.918Z,7.3
2019-04-05T03:30:39.545Z,7.3
2019-04-05T03:31:41.060Z,7.4
2019-04-05T03:32:42.677Z,7.4
2019-04-05T03:33:44.043Z,7.4
2019-04-05T03:34:45.830Z,7.5
2019-04-05T03:35:47.250Z,7.5
2019-04-05T03:36:53.065Z,7.6
2019-04-05T03:37:54.724Z,7.7
2019-04-05T03:38:56.327Z,7.7
2019-04-05T03:39:57.901Z,7.8
2019-04-05T03:40:59.344Z,7.8
2019-04-05T03:42:01.070Z,7.8
2019-04-05T03:43:02.757Z,7.8
2019-04-05T03:44:04.207Z,7.8
2019-04-05T03:45:05.853Z,7.8
2019-04-05T03:46:07.438Z,7.8
2019-04-05T03:47:08.761Z,7.9
2019-04-05T03:48:10.250Z,7.9
2019-04-05T03:49:11.743Z,7.9
2019-04-05T03:50:13.165Z,7.9
2019-04-05T03:51:14.627Z,7.9
2019-04-05T03:52:16.094Z,7.9
2019-04-05T03:53:17.654Z,7.9
2019-04-05T03:54:19.109Z,7.9
2019-04-05T03:55:20.524Z,7.2
2019-04-05T03:56:22.134Z,7.3
2019-04-05T03:57:23.564Z,7.3
2019-04-05T03:58:25.115Z,7.3
2019-04-05T03:59:26.721Z,7.2
2019-04-05T04:00:28.292Z,7.2
2019-04-05T04:01:29.692Z,7.2
2019-04-05T04:02:31.101Z,7.2
2019-04-05T04:03:32.575Z,7.2
2019-04-05T04:04:34.132Z,7.1
2019-04-05T04:05:35.710Z,7.1
2019-04-05T04:06:37.291Z,7.1
2019-04-05T04:07:38.851Z,7.1
2019-04-05T04:08:40.421Z,7.1
2019-04-05T04:09:41.983Z,7.1
2019-04-05T04:10:43.535Z,7.1
2019-04-05T04:11:45.114Z,7.1
2019-04-05T04:12:46.820Z,7.1
2019-04-05T04:13:48.239Z,7.1
2019-04-05T04:14:49.647Z,7.1
2019-04-05T04:15:51.221Z,7.1
2019-04-05T04:16:52.791Z,7.1
2019-04-05T04:17:54.190Z,7.2
2019-04-05T04:18:55.796Z,7.1
2019-04-05T04:19:57.469Z,7.2
2019-04-05T04:20:58.870Z,7.2
2019-04-05T04:22:00.425Z,7.2
2019-04-05T04:23:01.701Z,7.2
2019-04-05T04:24:03.149Z,7.2
2019-04-05T04:25:04.595Z,7.2
2019-04-05T04:26:06.178Z,7.2
2019-04-05T04:27:07.797Z,7.2
2019-04-05T04:28:09.206Z,7.2
2019-04-05T04:29:10.591Z,7.2
2019-04-05T04:30:12.008Z,7.3
2019-04-05T04:31:13.709Z,7.4
2019-04-05T04:32:15.123Z,7.4
2019-04-05T04:33:16.685Z,7.5
2019-04-05T04:34:18.098Z,7.6
2019-04-05T04:35:19.532Z,7.7
2019-04-05T04:36:20.948Z,7.7
2019-04-05T04:37:22.530Z,7.8
2019-04-05T04:38:24.103Z,7.8
2019-04-05T04:39:25.701Z,7.9
2019-04-05T04:40:27.292Z,7.9
2019-04-05T04:41:32.950Z,7.9
2019-04-05T04:42:34.420Z,7.9
2019-04-05T04:43:35.831Z,7.9
2019-04-05T04:44:37.398Z,7.9
2019-04-05T04:45:38.794Z,7.9
2019-04-05T04:46:40.000Z,7.9
2019-04-05T04:47:41.250Z,7.9
2019-04-05T04:48:42.667Z,7.8
2019-04-05T04:49:44.055Z,7.8
2019-04-05T04:50:45.595Z,7.8
2019-04-05T04:51:47.148Z,7.8
2019-04-05T04:52:48.527Z,7.8
2019-04-05T04:53:49.799Z,7.8
2019-04-05T04:54:51.347Z,7.7
2019-04-05T04:55:52.409Z,7.7
2019-04-05T04:56:53.506Z,7.8
2019-04-05T04:57:55.044Z,7.8
2019-04-05T04:58:56.432Z,7.8
2019-04-05T04:59:57.823Z,7.8
2019-04-05T05:00:59.202Z,7.8
2019-04-05T05:02:00.811Z,7.8
2019-04-05T05:03:02.219Z,7.8
2019-04-05T05:04:03.616Z,7.8
2019-04-05T05:05:04.898Z,7.9
2019-04-05T05:06:06.474Z,7.9
2019-04-05T05:07:08.020Z,7.9
2019-04-05T05:08:09.550Z,7.8
2019-04-05T05:09:11.086Z,7.9
2019-04-05T05:10:12.624Z,7.9
2019-04-05T05:11:16.508Z,7.9
2019-04-05T05:12:17.899Z,7.8
2019-04-05T05:13:19.430Z,7.8
2019-04-05T05:14:20.981Z,7.9
2019-04-05T05:15:22.228Z,7.8
2019-04-05T05:16:23.760Z,7.9
2019-04-05T05:17:38.998Z,7.9
2019-04-05T05:18:40.497Z,7.9
2019-04-05T05:19:41.929Z,7.9
2019-04-05T05:20:44.346Z,7.9
2019-04-05T05:21:45.730Z,7.9
2019-04-05T05:22:47.338Z,7.9
2019-04-05T05:23:48.887Z,7.9
2019-04-05T05:24:50.646Z,7.9
2019-04-05T05:25:52.054Z,7.9
2019-04-05T05:26:53.546Z,7.8
2019-04-05T05:27:55.110Z,7.8
2019-04-05T05:28:56.656Z,7.8
2019-04-05T05:29:58.238Z,7.8
2019-04-05T05:30:59.625Z,7.8
2019-04-05T05:32:01.026Z,7.8
2019-04-05T05:33:02.568Z,7.9
2019-04-05T05:34:04.117Z,7.9
2019-04-05T05:35:05.682Z,7.9
2019-04-05T05:36:10.187Z,7.9
2019-04-05T05:37:11.718Z,7.9
2019-04-05T05:38:12.943Z,7.9
2019-04-05T05:39:14.158Z,7.8
2019-04-05T05:40:15.529Z,7.9
2019-04-05T05:41:16.770Z,7.9
2019-04-05T05:42:18.175Z,7.9
2019-04-05T05:43:19.402Z,7.9
2019-04-05T05:44:20.795Z,7.8
2019-04-05T05:45:22.207Z,7.8
2019-04-05T05:46:23.768Z,7.7
2019-04-05T05:47:25.199Z,7.6
2019-04-05T05:48:26.644Z,7.6
2019-04-05T05:49:28.045Z,7.4
2019-04-05T05:50:29.265Z,7.3
2019-04-05T05:51:30.810Z,7.2
2019-04-05T05:52:32.037Z,7.1
2019-04-05T05:53:33.630Z,7.2
2019-04-05T05:54:35.174Z,7.1
2019-04-05T05:55:36.558Z,7.1
2019-04-05T05:56:38.109Z,7.1
2019-04-05T05:57:39.669Z,7.1
2019-04-05T05:58:41.199Z,7.1
2019-04-05T05:59:42.578Z,7.1
2019-04-05T06:00:43.963Z,7.1
2019-04-05T06:01:45.194Z,7.2
2019-04-05T06:02:49.810Z,7.2
2019-04-05T06:03:51.352Z,7.2
2019-04-05T06:04:52.772Z,7.2
2019-04-05T06:06:06.048Z,7.2
2019-04-05T06:07:07.637Z,7.2
2019-04-05T06:08:09.228Z,7.2
2019-04-05T06:09:10.598Z,7.2
2019-04-05T06:10:12.136Z,7.2
2019-04-05T06:11:13.678Z,7.2
2019-04-05T06:12:15.052Z,7.3
2019-04-05T06:13:16.452Z,7.3
2019-04-05T06:14:17.973Z,7.4
2019-04-05T06:15:19.347Z,7.4
2019-04-05T06:16:20.730Z,7.5
2019-04-05T06:17:22.084Z,7.6
2019-04-05T06:18:23.649Z,7.6
2019-04-05T06:19:25.062Z,7.7
2019-04-05T06:20:26.302Z,7.8
2019-04-05T06:21:27.853Z,7.9
2019-04-05T06:22:29.268Z,7.9
2019-04-05T06:23:35.495Z,7.9
2019-04-05T06:24:36.888Z,7.9
2019-04-05T06:25:38.466Z,7.9
2019-04-05T06:26:39.856Z,7.9
2019-04-05T06:27:41.392Z,7.9
2019-04-05T06:28:43.309Z,7.9
2019-04-05T06:29:44.593Z,7.9
2019-04-05T06:31:00.850Z,7.9
2019-04-05T06:32:02.256Z,7.9
2019-04-05T06:33:03.661Z,7.9
2019-04-05T06:34:05.049Z,7.9
2019-04-05T06:35:06.444Z,7.9
2019-04-05T06:36:07.860Z,7.9
2019-04-05T06:37:09.392Z,7.9
2019-04-05T06:38:10.930Z,7.9
2019-04-05T06:39:12.507Z,7.9
2019-04-05T06:40:14.060Z,7.9
2019-04-05T06:41:15.626Z,7.9
2019-04-05T06:42:17.165Z,7.9
2019-04-05T06:43:18.724Z,7.9
2019-04-05T06:44:20.276Z,7.8
2019-04-05T06:45:21.814Z,7.8
2019-04-05T06:46:23.039Z,7.8
2019-04-05T06:47:24.587Z,7.8
2019-04-05T06:48:29.849Z,7.8
2019-04-05T06:49:31.247Z,7.8
2019-04-05T06:50:32.771Z,7.7
2019-04-05T06:51:34.410Z,7.8
2019-04-05T06:52:36.045Z,7.8
2019-04-05T06:53:37.459Z,7.9
2019-04-05T06:54:39.007Z,7.9
2019-04-05T06:55:40.402Z,7.9
2019-04-05T06:56:41.962Z,7.9
2019-04-05T06:57:43.383Z,7.9
2019-04-05T06:58:48.048Z,7.9
2019-04-05T06:59:49.291Z,7.9
2019-04-05T07:00:58.919Z,7.9
2019-04-05T07:02:00.317Z,7.8
2019-04-05T07:03:01.882Z,7.8
2019-04-05T07:04:03.463Z,7.8
2019-04-05T07:05:04.901Z,7.8
2019-04-05T07:06:06.302Z,7.8
2019-04-05T07:07:07.670Z,7.9
2019-04-05T07:08:09.302Z,7.9
2019-04-05T07:09:10.851Z,7.5
2019-04-05T07:10:12.262Z,7.5
2019-04-05T07:11:13.806Z,7.6
2019-04-05T07:12:15.179Z,7.7
2019-04-05T07:13:16.452Z,7.8
2019-04-05T07:14:18.026Z,7.8
2019-04-05T07:15:19.600Z,7.9
2019-04-05T07:16:21.183Z,7.9
2019-04-05T07:17:22.791Z,7.9
2019-04-05T07:18:37.558Z,7.8
2019-04-05T07:19:39.178Z,7.8
2019-04-05T07:20:40.418Z,7.8
2019-04-05T07:21:41.789Z,7.8
2019-04-05T07:22:43.197Z,7.7
2019-04-05T07:23:44.606Z,7.7
2019-04-05T07:24:46.005Z,7.7
2019-04-05T07:25:47.564Z,7.7
2019-04-05T07:26:49.129Z,7.7
2019-04-05T07:27:50.524Z,7.7
2019-04-05T07:28:52.151Z,7.8
2019-04-05T07:29:53.548Z,7.8
2019-04-05T07:30:54.808Z,7.8
2019-04-05T07:31:56.395Z,7.8
2019-04-05T07:32:57.806Z,7.7
2019-04-05T07:33:59.362Z,7.7
2019-04-05T07:35:00.917Z,7.6
2019-04-05T07:36:05.013Z,7.6
2019-04-05T07:37:06.566Z,7.5
2019-04-05T07:38:11.266Z,7.5
2019-04-05T07:39:12.810Z,7.4
2019-04-05T07:40:14.353Z,7.4
2019-04-05T07:41:15.959Z,7.4
2019-04-05T07:42:17.376Z,7.3
2019-04-05T07:43:18.866Z,7.3
2019-04-05T07:44:20.269Z,7.3
2019-04-05T07:45:21.687Z,7.3
2019-04-05T07:46:23.068Z,7.3
2019-04-05T07:47:24.455Z,7.3
2019-04-05T07:48:25.997Z,7.3
2019-04-05T07:49:27.410Z,7.4
2019-04-05T07:50:29.060Z,7.4
2019-04-05T07:51:30.606Z,7.4
2019-04-05T07:52:32.147Z,7.4
2019-04-05T07:53:33.515Z,7.4
2019-04-05T07:54:34.876Z,7.4
2019-04-05T07:55:36.430Z,7.4
2019-04-05T07:56:37.995Z,7.4
2019-04-05T07:57:39.259Z,7.4
2019-04-05T07:58:40.808Z,7.4
2019-04-05T07:59:42.217Z,7.4
2019-04-05T08:00:43.785Z,7.4
2019-04-05T08:01:45.346Z,7.4
2019-04-05T08:02:46.885Z,7.4
2019-04-05T08:03:48.115Z,7.4
2019-04-05T08:04:49.516Z,7.5
2019-04-05T08:05:50.947Z,7.5
2019-04-05T08:06:52.490Z,7.6
2019-04-05T08:07:54.142Z,7.7
2019-04-05T08:08:55.409Z,7.8
2019-04-05T08:09:56.970Z,7.8
2019-04-05T08:10:58.389Z,7.9
2019-04-05T08:11:59.953Z,7.9
2019-04-05T08:13:01.355Z,7.9
2019-04-05T08:14:02.941Z,7.9
2019-04-05T08:15:04.525Z,7.9
2019-04-05T08:16:06.078Z,7.9
2019-04-05T08:17:07.628Z,7.9
2019-04-05T08:18:09.180Z,7.9
2019-04-05T08:19:10.557Z,7.9
2019-04-05T08:20:12.122Z,7.9
2019-04-05T08:21:13.676Z,7.9
2019-04-05T08:22:15.229Z,7.9
2019-04-05T08:23:16.609Z,7.9
2019-04-05T08:24:17.975Z,7.9
2019-04-05T08:25:19.590Z,7.9
2019-04-05T08:26:21.150Z,7.9
2019-04-05T08:27:22.721Z,7.9
2019-04-05T08:28:24.121Z,7.9
2019-04-05T08:29:25.540Z,7.9
2019-04-05T08:30:26.950Z,7.9
2019-04-05T08:31:28.186Z,7.9
2019-04-05T08:32:29.581Z,7.9
2019-04-05T08:33:30.988Z,7.9
2019-04-05T08:34:32.373Z,7.9
2019-04-05T08:35:33.657Z,7.8
2019-04-05T08:36:35.343Z,7.9
2019-04-05T08:37:36.906Z,7.9
2019-04-05T08:38:41.167Z,7.9
2019-04-05T08:39:42.739Z,7.8
2019-04-05T08:40:44.292Z,7.8
2019-04-05T08:41:45.831Z,7.7
2019-04-05T08:42:47.378Z,7.6
2019-04-05T08:43:48.974Z,7.5
2019-04-05T08:44:50.529Z,7.4
2019-04-05T08:45:51.950Z,7.2
2019-04-05T08:46:53.329Z,7.1
2019-04-05T08:47:54.897Z,7.1
2019-04-05T08:48:56.277Z,7.1
2019-04-05T08:49:57.824Z,7.2
2019-04-05T08:50:59.210Z,7.1
2019-04-05T08:52:00.863Z,7.1
2019-04-05T08:53:02.432Z,7.2
2019-04-05T08:54:03.669Z,7.1
2019-04-05T08:55:05.195Z,7.1
2019-04-05T08:56:06.587Z,7.1
2019-04-05T08:57:07.985Z,7.1
2019-04-05T08:58:09.549Z,7.1
2019-04-05T08:59:10.979Z,7.1
2019-04-05T09:00:12.554Z,7.1
2019-04-05T09:01:13.962Z,7.1
2019-04-05T09:02:15.026Z,7.1
2019-04-05T09:03:16.441Z,7.1
2019-04-05T09:04:17.999Z,7.2
2019-04-05T09:05:19.569Z,7.2
2019-04-05T09:06:21.111Z,7.2
2019-04-05T09:07:22.638Z,7.2
2019-04-05T09:08:24.046Z,7.2
2019-04-05T09:09:25.576Z,7.2
2019-04-05T09:10:26.996Z,7.2
2019-04-05T09:11:28.557Z,7.2
2019-04-05T09:12:30.091Z,7.2
2019-04-05T09:13:31.481Z,7.2
2019-04-05T09:14:32.899Z,7.3
2019-04-05T09:15:34.204Z,7.3
2019-04-05T09:16:35.751Z,7.4
2019-04-05T09:17:37.401Z,7.5
2019-04-05T09:18:38.949Z,7.6
2019-04-05T09:19:40.537Z,7.7
2019-04-05T09:20:42.069Z,7.8
2019-04-05T09:21:43.838Z,7.9
2019-04-05T09:22:45.428Z,7.9
2019-04-05T09:23:46.978Z,7.8
2019-04-05T09:24:48.523Z,7.9
2019-04-05T09:25:50.071Z,7.9
2019-04-05T09:26:54.902Z,7.5
2019-04-05T09:27:56.315Z,7.7
2019-04-05T09:28:57.865Z,7.9
2019-04-05T09:29:59.488Z,7.9
2019-04-05T09:31:01.044Z,7.9
2019-04-05T09:32:02.587Z,7.9
2019-04-05T09:33:04.140Z,7.9
2019-04-05T09:34:05.517Z,7.9
2019-04-05T09:35:06.758Z,7.9
2019-04-05T09:36:08.347Z,7.9
2019-04-05T09:37:09.750Z,7.9
2019-04-05T09:38:10.979Z,7.9
2019-04-05T09:39:17.210Z,7.9
2019-04-05T09:40:21.984Z,7.9
2019-04-05T09:41:23.062Z,7.9
2019-04-05T09:42:24.631Z,7.9
2019-04-05T09:43:25.839Z,7.9
2019-04-05T09:44:27.412Z,7.9
2019-04-05T09:45:28.972Z,7.9
2019-04-05T09:46:30.207Z,7.9
2019-04-05T09:47:31.765Z,7.9
2019-04-05T09:48:33.298Z,7.9
2019-04-05T09:49:38.670Z,7.9
2019-04-05T09:50:40.212Z,7.9
2019-04-05T09:51:41.776Z,7.9
2019-04-05T09:52:43.333Z,7.9
2019-04-05T09:53:44.744Z,7.8
2019-04-05T09:54:46.146Z,7.8
2019-04-05T09:55:47.523Z,7.9
2019-04-05T09:56:48.913Z,7.9
2019-04-05T09:57:50.486Z,7.9
2019-04-05T09:58:51.890Z,7.9
2019-04-05T09:59:53.456Z,7.9
2019-04-05T10:00:54.862Z,7.9
2019-04-05T10:01:56.485Z,7.9
2019-04-05T10:02:58.062Z,7.9
2019-04-05T10:03:59.530Z,7.9
2019-04-05T10:05:00.989Z,7.9
2019-04-05T10:06:02.309Z,7.9
2019-04-05T10:07:03.699Z,7.9
2019-04-05T10:08:05.250Z,7.9
2019-04-05T10:09:06.905Z,7.9
2019-04-05T10:10:08.372Z,7.9
2019-04-05T10:11:09.951Z,7.9
2019-04-05T10:12:11.525Z,7.9
2019-04-05T10:13:13.059Z,7.9
2019-04-05T10:14:14.301Z,7.9
2019-04-05T10:15:15.851Z,7.9
2019-04-05T10:16:17.251Z,7.9
2019-04-05T10:17:18.622Z,7.9
2019-04-05T10:18:20.181Z,7.9
2019-04-05T10:19:21.732Z,7.9
2019-04-05T10:20:23.263Z,7.8
2019-04-05T10:21:24.867Z,7.8
2019-04-05T10:22:26.290Z,7.8
2019-04-05T10:23:27.841Z,7.7
2019-04-05T10:24:29.381Z,7.7
2019-04-05T10:25:30.792Z,7.6
2019-04-05T10:26:32.389Z,7.4
2019-04-05T10:27:33.775Z,7.2
2019-04-05T10:28:35.335Z,7.2
2019-04-05T10:29:36.790Z,7.1
2019-04-05T10:30:38.191Z,7.1
2019-04-05T10:31:39.752Z,7.1
2019-04-05T10:32:41.148Z,7.1
2019-04-05T10:33:42.536Z,7.1
2019-04-05T10:34:43.939Z,7.1
2019-04-05T10:35:45.547Z,7.1
2019-04-05T10:36:46.974Z,7.1
2019-04-05T10:37:48.562Z,7.1
2019-04-05T10:38:49.794Z,7.1
2019-04-05T10:39:51.258Z,7.1
2019-04-05T10:40:52.810Z,7.1
2019-04-05T10:42:05.122Z,7.1
2019-04-05T10:43:06.711Z,7.2
2019-04-05T10:44:08.155Z,7.2
2019-04-05T10:45:09.779Z,7.2
2019-04-05T10:46:11.327Z,7.2
2019-04-05T10:47:12.885Z,7.2
2019-04-05T10:48:14.479Z,7.2
2019-04-05T10:49:16.758Z,7.2
2019-04-05T10:50:18.168Z,7.2
2019-04-05T10:51:19.740Z,7.2
2019-04-05T10:52:21.285Z,7.2
2019-04-05T10:53:22.819Z,7.2
2019-04-05T10:54:24.062Z,7.2
2019-04-05T10:55:25.319Z,7.3
2019-04-05T10:56:26.906Z,7.3
2019-04-05T10:57:28.440Z,7.4
2019-04-05T10:58:29.911Z,7.4
2019-04-05T10:59:31.457Z,7.5
2019-04-05T11:00:32.890Z,7.6
2019-04-05T11:01:34.477Z,7.7
2019-04-05T11:02:35.742Z,7.8
2019-04-05T11:03:37.323Z,7.9
2019-04-05T11:04:38.909Z,7.2
2019-04-05T11:05:40.471Z,7.4
2019-04-05T11:06:42.019Z,7.6
2019-04-05T11:07:43.733Z,7.7
2019-04-05T11:08:45.283Z,7.9
2019-04-05T11:09:46.863Z,7.9
2019-04-05T11:10:48.429Z,7.9
2019-04-05T11:11:49.820Z,7.9
2019-04-05T11:12:51.595Z,7.9
2019-04-05T11:13:53.169Z,7.2
2019-04-05T11:14:54.554Z,7.3
2019-04-05T11:15:55.940Z,7.4
2019-04-05T11:17:00.170Z,7.5
2019-04-05T11:18:04.863Z,7.6
2019-04-05T11:19:06.418Z,7.8
2019-04-05T11:20:23.517Z,7.8
2019-04-05T11:21:25.074Z,7.9
2019-04-05T11:22:26.645Z,7.9
2019-04-05T11:23:28.062Z,7.9
2019-04-05T11:24:29.464Z,7.9
2019-04-05T11:25:30.876Z,7.8
2019-04-05T11:26:32.275Z,7.8
2019-04-05T11:27:33.812Z,7.8
2019-04-05T11:28:35.356Z,7.7
2019-04-05T11:29:36.892Z,7.7
2019-04-05T11:30:38.433Z,7.7
2019-04-05T11:31:39.991Z,7.8
2019-04-05T11:32:41.210Z,7.8
2019-04-05T11:33:42.804Z,7.8
2019-04-05T11:34:44.218Z,7.8
2019-04-05T11:35:45.862Z,7.8
2019-04-05T11:36:47.316Z,7.8
2019-04-05T11:37:55.041Z,7.8
2019-04-05T11:38:56.628Z,7.8
2019-04-05T11:39:57.872Z,7.8
2019-04-05T11:40:59.449Z,7.8
2019-04-05T11:42:00.856Z,7.8
2019-04-05T11:43:02.286Z,7.8
2019-04-05T11:44:03.902Z,7.8
2019-04-05T11:45:05.499Z,7.2
2019-04-05T11:46:06.919Z,7.3
2019-04-05T11:47:08.328Z,7.4
2019-04-05T11:48:09.780Z,7.5
2019-04-05T11:49:11.361Z,7.6
2019-04-05T11:50:12.938Z,7.6
2019-04-05T11:51:14.355Z,7.6
2019-04-05T11:52:15.759Z,7.6
2019-04-05T11:53:17.322Z,7.5
2019-04-05T11:54:20.061Z,7.4
2019-04-05T11:55:21.299Z,7.2
2019-04-05T11:56:22.860Z,7.2
2019-04-05T11:57:24.484Z,7.1
2019-04-05T11:58:26.138Z,7.1
2019-04-05T11:59:27.792Z,7.1
2019-04-05T12:00:29.471Z,7.1
2019-04-05T12:01:31.064Z,7.1
2019-04-05T12:02:32.693Z,7.1
2019-04-05T12:03:34.245Z,7.1
2019-04-05T12:04:35.677Z,7.1
2019-04-05T12:05:37.273Z,7.1
2019-04-05T12:06:38.725Z,7.1
2019-04-05T12:07:40.137Z,7.2
2019-04-05T12:08:41.547Z,7.1
2019-04-05T12:09:43.009Z,7.1
2019-04-05T12:10:44.429Z,7.2
2019-04-05T12:11:47.956Z,7.1
2019-04-05T12:12:49.543Z,7.1
2019-04-05T12:13:50.953Z,7.1
2019-04-05T12:14:52.437Z,7.1
2019-04-05T12:15:54.003Z,7.2
2019-04-05T12:16:55.563Z,7.2
2019-04-05T12:17:57.118Z,7.2
2019-04-05T12:19:00.538Z,7.2
2019-04-05T12:20:04.959Z,7.2
2019-04-05T12:21:07.373Z,7.2
2019-04-05T12:22:10.788Z,7.2
2019-04-05T12:23:12.212Z,7.2
2019-04-05T12:24:13.715Z,7.2
2019-04-05T12:25:15.104Z,7.2
2019-04-05T12:26:16.528Z,7.3
2019-04-05T12:27:17.620Z,7.4
2019-04-05T12:28:19.974Z,7.6
2019-04-05T12:29:21.358Z,7.7
2019-04-05T12:30:22.757Z,7.8
2019-04-05T12:31:24.178Z,7.8
2019-04-05T12:32:42.716Z,7.9
2019-04-05T12:33:52.334Z,7.9
2019-04-05T12:34:54.209Z,7.9
2019-04-05T12:35:58.222Z,7.9
2019-04-05T12:36:59.637Z,7.9
2019-04-05T12:38:01.038Z,7.9
2019-04-05T12:39:09.439Z,7.9
2019-04-05T12:40:15.416Z,7.7
2019-04-05T12:41:19.697Z,7.8
2019-04-05T12:42:21.252Z,7.9
2019-04-05T12:43:22.662Z,7.9
2019-04-05T12:44:24.052Z,7.9
2019-04-05T12:45:25.458Z,7.9
2019-04-05T12:46:26.869Z,7.9
2019-04-05T12:47:28.480Z,7.7
2019-04-05T12:48:30.189Z,7.8
2019-04-05T12:49:31.734Z,7.9
2019-04-05T12:50:33.280Z,7.9
2019-04-05T12:51:34.837Z,7.9
2019-04-05T12:52:36.401Z,7.9
2019-04-05T12:53:38.032Z,7.9
2019-04-05T12:54:39.280Z,7.9
2019-04-05T12:55:40.849Z,7.9
2019-04-05T12:56:42.346Z,7.9
2019-04-05T12:57:43.750Z,7.9
2019-04-05T12:58:45.127Z,7.9
2019-04-05T12:59:46.703Z,7.9
2019-04-05T13:00:48.123Z,7.9
2019-04-05T13:01:49.669Z,7.9
2019-04-05T13:02:52.201Z,7.9
2019-04-05T13:03:53.610Z,7.9
2019-04-05T13:04:54.849Z,7.9
2019-04-05T13:05:58.719Z,7.2
2019-04-05T13:07:00.022Z,7.3
2019-04-05T13:08:01.625Z,7.4
2019-04-05T13:09:06.976Z,7.5
2019-04-05T13:10:08.478Z,7.6
2019-04-05T13:11:10.136Z,7.7
2019-04-05T13:12:11.720Z,7.8
2019-04-05T13:13:13.285Z,7.8
2019-04-05T13:14:14.834Z,7.8
2019-04-05T13:15:18.759Z,7.9
2019-04-05T13:16:19.991Z,7.9
2019-04-05T13:17:21.398Z,7.9
2019-04-05T13:18:26.097Z,7.9
2019-04-05T13:19:31.767Z,7.9
2019-04-05T13:20:33.357Z,7.8
2019-04-05T13:21:34.906Z,7.8
2019-04-05T13:22:36.226Z,7.8
2019-04-05T13:23:38.136Z,7.8
2019-04-05T13:24:41.817Z,7.7
2019-04-05T13:25:43.119Z,7.7
2019-04-05T13:26:44.721Z,7.7
2019-04-05T13:27:46.145Z,7.7
2019-04-05T13:28:50.316Z,7.7
2019-04-05T13:29:51.837Z,7.7
2019-04-05T13:30:56.627Z,7.7
2019-04-05T13:31:57.929Z,7.7
2019-04-05T13:32:59.329Z,7.6
2019-04-05T13:34:00.919Z,7.6
2019-04-05T13:35:02.355Z,7.6
2019-04-05T13:36:03.605Z,7.5
2019-04-05T13:37:05.188Z,7.5
2019-04-05T13:38:06.749Z,7.4
2019-04-05T13:39:08.308Z,7.4
2019-04-05T13:40:09.757Z,7.4
2019-04-05T13:41:10.969Z,7.5
2019-04-05T13:42:12.605Z,7.5
2019-04-05T13:43:13.847Z,7.5
2019-04-05T13:44:15.247Z,7.6
2019-04-05T13:45:16.631Z,7.6
2019-04-05T13:46:27.264Z,7.6
2019-04-05T13:47:28.865Z,7.5
2019-04-05T13:48:30.467Z,7.5
2019-04-05T13:49:31.860Z,7.6
2019-04-05T13:50:33.487Z,7.6
2019-04-05T13:51:34.903Z,7.7
2019-04-05T13:52:36.450Z,7.7
2019-04-05T13:53:42.359Z,7.8
2019-04-05T13:54:43.755Z,7.9
2019-04-05T13:55:48.548Z,7.9
2019-04-05T13:56:50.110Z,7.9
2019-04-05T13:57:51.505Z,7.9
2019-04-05T13:58:53.105Z,7.9
2019-04-05T13:59:54.510Z,7.9
2019-04-05T14:00:55.910Z,7.8
2019-04-05T14:02:08.045Z,7.8
2019-04-05T14:03:09.609Z,7.7
2019-04-05T14:04:11.169Z,7.7
2019-04-05T14:05:12.722Z,7.8
2019-04-05T14:06:14.163Z,7.8
2019-04-05T14:07:15.720Z,7.8
2019-04-05T14:08:17.288Z,7.7
2019-04-05T14:09:18.864Z,7.7
2019-04-05T14:10:20.424Z,7.7
2019-04-05T14:11:21.994Z,7.6